Time;durP1;ratioP1;P1;durP2;ratioP2;P2;SDS_P1;SDS_P2;PMS_P1;PMS_P2;Temp;Humidity;BMP_temperature;BMP_pressure;BME280_temperature;BME280_humidity;BME280_pressure;Samples;Min_cycle;Max_cycle;Signal;HPM_P1;HPM_P2
2023/06/02 00:00:00;;;;;;;9.13;5.10;;;19.00;58.70;;;;;;5011525;28;20465;-75
2023/06/02 00:02:29;;;;;;;7.93;5.13;;;19.00;59.20;;;;;;5012686;28;20567;-76
2023/06/02 00:04:59;;;;;;;5.60;3.73;;;18.90;59.10;;;;;;5009763;28;20488;-74
2023/06/02 00:07:28;;;;;;;10.90;4.60;;;18.90;59.50;;;;;;5011961;28;20458;-76
2023/06/02 00:09:55;;;;;;;6.50;4.07;;;18.80;59.60;;;;;;5007419;28;20457;-75
2023/06/02 00:12:21;;;;;;;6.13;4.40;;;18.70;59.60;;;;;;5009108;28;20448;-77
2023/06/02 00:14:48;;;;;;;6.00;4.20;;;18.70;59.60;;;;;;5012904;28;20890;-75
2023/06/02 00:17:14;;;;;;;7.07;4.07;;;18.60;60.00;;;;;;5012347;28;20435;-75
2023/06/02 00:19:42;;;;;;;11.23;5.40;;;18.50;60.10;;;;;;5010706;28;20475;-73
2023/06/02 00:22:13;;;;;;;8.43;4.90;;;18.50;59.30;;;;;;5011273;28;20461;-74
2023/06/02 00:24:39;;;;;;;7.93;4.63;;;18.40;60.10;;;;;;5010781;28;20434;-73
2023/06/02 00:27:07;;;;;;;9.37;4.53;;;18.30;58.40;;;;;;5010252;28;20508;-75
2023/06/02 00:29:32;;;;;;;10.13;4.70;;;18.30;60.00;;;;;;5009276;28;21045;-74
2023/06/02 00:31:58;;;;;;;8.50;4.13;;;18.20;60.60;;;;;;5009563;28;20483;-73
2023/06/02 00:34:23;;;;;;;9.30;5.60;;;18.20;60.60;;;;;;5011410;28;20197;-72
2023/06/02 00:36:49;;;;;;;8.20;4.30;;;18.10;60.10;;;;;;5008949;28;20275;-73
2023/06/02 00:39:15;;;;;;;9.80;5.07;;;18.10;60.00;;;;;;5010969;28;20596;-74
2023/06/02 00:41:40;;;;;;;10.23;4.67;;;18.00;60.00;;;;;;5012819;28;20217;-74
2023/06/02 00:44:06;;;;;;;7.47;4.23;;;18.00;59.70;;;;;;5012648;28;20571;-75
2023/06/02 00:46:32;;;;;;;9.63;4.67;;;18.00;60.00;;;;;;5009473;28;20192;-74
2023/06/02 00:48:57;;;;;;;7.23;4.00;;;17.90;60.10;;;;;;5006871;28;20203;-75
2023/06/02 00:51:23;;;;;;;6.80;4.50;;;17.90;59.90;;;;;;5012394;28;20676;-76
2023/06/02 00:53:50;;;;;;;9.87;5.20;;;17.90;59.50;;;;;;5012047;28;20197;-74
2023/06/02 00:56:16;;;;;;;8.77;4.53;;;17.80;59.30;;;;;;5011375;28;20667;-77
2023/06/02 00:58:45;;;;;;;8.50;5.00;;;17.80;59.50;;;;;;5013769;28;20426;-75
2023/06/02 01:01:12;;;;;;;7.03;4.40;;;17.80;59.50;;;;;;5009531;28;20882;-74
2023/06/02 01:03:45;;;;;;;8.77;4.90;;;17.80;59.30;;;;;;5006273;28;20427;-74
2023/06/02 01:06:13;;;;;;;7.70;4.70;;;17.80;58.90;;;;;;5007231;28;20514;-74
2023/06/02 01:08:40;;;;;;;11.20;4.63;;;17.80;58.50;;;;;;5009313;28;20545;-74
2023/06/02 01:11:07;;;;;;;9.77;4.60;;;17.70;58.70;;;;;;5007874;28;20434;-73
2023/06/02 01:13:33;;;;;;;8.70;4.97;;;17.80;59.20;;;;;;5005978;28;20877;-76
2023/06/02 01:15:59;;;;;;;7.13;4.93;;;17.80;59.30;;;;;;5009764;28;20965;-74
2023/06/02 01:18:29;;;;;;;8.10;4.60;;;17.70;59.30;;;;;;5010108;28;20421;-74
2023/06/02 01:21:00;;;;;;;11.60;4.80;;;17.60;59.30;;;;;;5006754;28;20583;-73
2023/06/02 01:23:32;;;;;;;9.57;5.10;;;17.60;59.20;;;;;;5005078;28;20978;-72
2023/06/02 01:25:57;;;;;;;7.30;4.60;;;17.50;59.10;;;;;;5008029;28;20425;-73
2023/06/02 01:28:24;;;;;;;9.97;4.90;;;17.50;59.30;;;;;;5008816;28;20427;-73
2023/06/02 01:30:55;;;;;;;8.00;4.43;;;17.50;59.30;;;;;;5008863;28;20238;-73
2023/06/02 01:33:43;;;;;;;7.50;4.73;;;17.50;59.20;;;;;;5007932;28;20436;-72
2023/06/02 01:36:09;;;;;;;9.97;4.70;;;17.50;59.30;;;;;;5010694;28;20416;-77
2023/06/02 01:38:37;;;;;;;10.40;4.80;;;17.50;59.50;;;;;;5011307;28;20413;-76
2023/06/02 01:41:04;;;;;;;9.70;5.10;;;17.50;59.50;;;;;;5020897;28;20192;-75
2023/06/02 01:43:32;;;;;;;7.37;4.50;;;17.50;59.60;;;;;;5010469;28;20438;-75
2023/06/02 01:45:59;;;;;;;8.60;5.00;;;17.50;59.30;;;;;;5009281;28;20435;-75
2023/06/02 01:48:28;;;;;;;9.20;5.37;;;17.50;59.30;;;;;;5010722;28;20521;-74
2023/06/02 01:50:54;;;;;;;12.57;5.43;;;17.40;59.30;;;;;;5010343;28;20611;-76
2023/06/02 01:53:20;;;;;;;7.87;4.83;;;17.40;59.60;;;;;;5007972;28;20522;-76
2023/06/02 01:55:47;;;;;;;11.23;4.60;;;17.40;59.50;;;;;;5009277;28;20271;-76
2023/06/02 01:58:13;;;;;;;7.87;4.70;;;17.40;59.50;;;;;;5008613;28;20238;-76
2023/06/02 02:00:38;;;;;;;14.23;5.50;;;17.40;60.00;;;;;;5007726;28;20465;-75
2023/06/02 02:03:04;;;;;;;8.90;4.80;;;17.30;60.30;;;;;;5010110;28;20209;-75
2023/06/02 02:05:30;;;;;;;14.77;5.50;;;17.20;60.30;;;;;;5010642;28;20180;-76
2023/06/02 02:07:57;;;;;;;9.63;4.60;;;17.00;60.90;;;;;;5011414;28;21204;-75
2023/06/02 02:10:23;;;;;;;8.60;4.80;;;17.00;61.00;;;;;;5010265;28;20289;-75
2023/06/02 02:12:49;;;;;;;10.10;5.77;;;17.10;61.20;;;;;;5006623;28;20521;-77
2023/06/02 02:15:15;;;;;;;6.97;4.70;;;17.10;61.30;;;;;;5012935;28;20185;-74
2023/06/02 02:17:44;;;;;;;6.53;4.90;;;17.10;61.30;;;;;;5014744;28;20421;-75
2023/06/02 02:20:12;;;;;;;9.33;5.20;;;17.10;61.50;;;;;;5009803;28;20523;-75
2023/06/02 02:22:38;;;;;;;8.40;4.87;;;17.20;61.50;;;;;;5014591;28;20476;-76
2023/06/02 02:25:03;;;;;;;8.90;5.40;;;17.10;61.60;;;;;;5013537;28;20793;-78
2023/06/02 02:27:29;;;;;;;8.87;5.00;;;17.10;61.70;;;;;;5014717;28;20239;-74
2023/06/02 02:29:55;;;;;;;11.90;5.30;;;17.10;61.90;;;;;;5013815;28;20213;-74
2023/06/02 02:32:20;;;;;;;14.83;5.30;;;17.00;61.90;;;;;;5014345;28;20207;-74
2023/06/02 02:34:46;;;;;;;13.53;5.53;;;16.90;62.20;;;;;;5014425;28;20213;-74
2023/06/02 02:37:12;;;;;;;8.93;5.00;;;16.90;62.60;;;;;;5012817;28;20182;-74
2023/06/02 02:39:38;;;;;;;9.87;5.70;;;16.80;62.90;;;;;;5013880;28;20465;-75
2023/06/02 02:42:04;;;;;;;12.63;6.27;;;16.70;63.10;;;;;;5014264;28;20464;-73
2023/06/02 02:44:30;;;;;;;10.90;6.03;;;16.70;63.20;;;;;;5014247;28;20408;-72
2023/06/02 02:46:58;;;;;;;10.47;5.53;;;16.50;64.10;;;;;;5013681;28;20420;-73
2023/06/02 02:49:24;;;;;;;12.40;6.67;;;16.40;64.40;;;;;;5009026;28;20660;-72
2023/06/02 02:51:49;;;;;;;11.43;5.03;;;16.30;65.00;;;;;;5014045;28;20504;-73
2023/06/02 02:54:16;;;;;;;12.47;5.50;;;16.20;65.30;;;;;;5014014;28;20220;-73
2023/06/02 02:56:41;;;;;;;5.77;4.60;;;16.30;65.30;;;;;;5009904;28;20228;-75
2023/06/02 02:59:07;;;;;;;10.73;5.50;;;16.30;65.30;;;;;;5008448;28;20464;-75
2023/06/02 03:01:32;;;;;;;10.10;5.50;;;16.20;65.70;;;;;;5012747;28;20606;-73
2023/06/02 03:03:58;;;;;;;22.97;6.77;;;16.20;65.70;;;;;;5010542;28;20178;-75
2023/06/02 03:06:31;;;;;;;7.67;5.17;;;16.20;65.70;;;;;;5008791;28;20193;-74
2023/06/02 03:08:58;;;;;;;10.77;5.60;;;16.20;65.80;;;;;;5010492;28;20554;-72
2023/06/02 03:11:23;;;;;;;12.37;6.47;;;16.20;66.00;;;;;;5008531;28;20425;-74
2023/06/02 03:13:49;;;;;;;13.43;5.93;;;16.00;66.70;;;;;;5009919;28;20954;-76
2023/06/02 03:16:16;;;;;;;10.57;5.37;;;16.00;66.90;;;;;;5007161;28;20757;-74
2023/06/02 03:18:42;;;;;;;12.00;6.73;;;16.00;67.00;;;;;;5008816;28;20195;-73
2023/06/02 03:21:07;;;;;;;10.50;5.63;;;15.90;67.30;;;;;;5014911;28;20444;-74
2023/06/02 03:23:33;;;;;;;12.30;6.33;;;15.80;67.60;;;;;;5011937;28;20182;-74
2023/06/02 03:26:00;;;;;;;13.47;6.00;;;15.60;68.20;;;;;;5014328;28;20290;-73
2023/06/02 03:28:25;;;;;;;11.13;6.07;;;15.60;68.50;;;;;;5017610;28;20409;-74
2023/06/02 03:30:51;;;;;;;11.40;5.70;;;15.50;69.10;;;;;;5017641;28;21032;-74
2023/06/02 03:33:16;;;;;;;9.57;5.03;;;15.50;69.20;;;;;;5017698;28;20201;-75
2023/06/02 03:35:42;;;;;;;12.80;6.20;;;15.50;69.50;;;;;;5016619;28;20192;-76
2023/06/02 03:38:08;;;;;;;12.13;6.67;;;15.40;69.50;;;;;;5017115;28;20309;-74
2023/06/02 03:40:34;;;;;;;13.20;5.97;;;15.20;70.10;;;;;;5006594;28;20237;-73
2023/06/02 03:43:00;;;;;;;10.43;5.70;;;15.10;70.70;;;;;;5012641;28;20241;-74
2023/06/02 03:45:25;;;;;;;13.90;6.73;;;15.10;70.70;;;;;;5013597;28;20827;-76
2023/06/02 03:47:51;;;;;;;10.30;6.10;;;15.00;71.00;;;;;;5014136;28;20654;-74
2023/06/02 03:50:16;;;;;;;13.73;6.03;;;14.90;71.30;;;;;;5004024;28;20572;-73
2023/06/02 03:52:42;;;;;;;16.43;6.27;;;14.90;71.30;;;;;;5011471;28;20190;-76
2023/06/02 03:55:08;;;;;;;17.83;7.03;;;14.90;71.30;;;;;;5009995;28;20644;-73
2023/06/02 03:57:33;;;;;;;11.20;6.13;;;14.90;71.40;;;;;;5011281;28;20189;-74
2023/06/02 03:59:59;;;;;;;12.23;5.70;;;14.90;71.30;;;;;;5006756;28;20296;-74
2023/06/02 04:02:25;;;;;;;12.80;5.60;;;14.90;71.40;;;;;;5011605;28;20580;-74
2023/06/02 04:04:51;;;;;;;11.63;5.80;;;14.90;71.40;;;;;;5007279;28;20574;-74
2023/06/02 04:07:17;;;;;;;14.63;6.57;;;15.00;71.40;;;;;;5009030;28;20191;-74
2023/06/02 04:09:42;;;;;;;13.43;6.63;;;15.00;71.40;;;;;;5008736;28;20206;-73
2023/06/02 04:12:08;;;;;;;11.67;6.30;;;15.00;71.30;;;;;;5011389;28;20188;-74
2023/06/02 04:14:34;;;;;;;10.07;5.20;;;15.10;71.40;;;;;;5011745;28;20192;-75
2023/06/02 04:17:00;;;;;;;15.73;7.30;;;15.10;71.30;;;;;;5010811;28;20223;-75
2023/06/02 04:19:25;;;;;;;12.90;6.40;;;15.10;71.30;;;;;;5010366;28;20473;-74
2023/06/02 04:21:52;;;;;;;13.33;7.27;;;14.70;71.80;;;;;;5007855;28;20212;-74
2023/06/02 04:24:18;;;;;;;15.63;7.27;;;14.70;71.70;;;;;;5008685;28;20204;-75
2023/06/02 04:26:45;;;;;;;13.73;7.40;;;14.90;71.60;;;;;;5010197;28;20416;-75
2023/06/02 04:29:11;;;;;;;11.60;7.07;;;14.80;71.70;;;;;;5009912;28;20793;-74
2023/06/02 04:31:45;;;;;;;13.80;7.30;;;14.90;71.70;;;;;;5012166;28;20517;-77
2023/06/02 04:34:12;;;;;;;13.00;7.77;;;14.90;71.40;;;;;;5011105;28;20231;-74
2023/06/02 04:36:38;;;;;;;13.70;7.33;;;14.90;71.40;;;;;;5006250;28;20476;-76
2023/06/02 04:39:06;;;;;;;16.90;7.23;;;14.60;71.80;;;;;;5009898;28;20461;-76
2023/06/02 04:41:32;;;;;;;12.10;6.93;;;14.40;72.30;;;;;;5012023;28;20470;-74
2023/06/02 04:43:58;;;;;;;16.53;7.00;;;14.20;72.90;;;;;;5012129;28;20422;-75
2023/06/02 04:46:26;;;;;;;15.40;6.73;;;14.10;73.00;;;;;;5009809;28;20270;-75
2023/06/02 04:48:53;;;;;;;12.83;6.70;;;14.20;73.20;;;;;;5010945;28;20430;-75
2023/06/02 04:51:19;;;;;;;11.70;6.33;;;14.20;73.30;;;;;;5010429;28;20803;-74
2023/06/02 04:53:45;;;;;;;13.70;7.30;;;14.20;73.30;;;;;;5011362;28;20421;-74
2023/06/02 04:56:10;;;;;;;13.70;7.13;;;14.30;73.20;;;;;;5011068;28;20577;-75
2023/06/02 04:58:37;;;;;;;12.60;7.77;;;14.40;73.00;;;;;;5010570;28;20853;-76
2023/06/02 05:01:03;;;;;;;14.27;7.20;;;14.30;73.20;;;;;;5006066;28;20334;-73
2023/06/02 05:03:28;;;;;;;13.37;7.03;;;14.20;73.70;;;;;;5010557;28;20531;-75
2023/06/02 05:05:54;;;;;;;15.43;7.37;;;14.20;74.00;;;;;;5006276;28;20274;-73
2023/06/02 05:08:20;;;;;;;19.40;7.53;;;14.20;74.00;;;;;;5010000;28;20198;-74
2023/06/02 05:10:45;;;;;;;16.50;7.90;;;14.00;75.20;;;;;;5005731;28;20767;-76
2023/06/02 05:13:12;;;;;;;24.37;8.30;;;14.00;75.20;;;;;;5008687;28;20194;-75
2023/06/02 05:15:39;;;;;;;17.00;8.43;;;13.90;75.70;;;;;;5008881;28;20344;-74
2023/06/02 05:18:04;;;;;;;18.47;7.73;;;13.90;75.70;;;;;;5008731;28;20452;-74
2023/06/02 05:20:30;;;;;;;16.60;8.17;;;14.00;75.70;;;;;;5006363;28;20461;-75
2023/06/02 05:22:55;;;;;;;16.60;8.17;;;14.10;75.20;;;;;;5008078;28;20205;-74
2023/06/02 05:25:21;;;;;;;20.27;7.90;;;14.00;75.40;;;;;;5009898;28;20244;-73
2023/06/02 05:27:46;;;;;;;14.50;8.03;;;14.00;75.70;;;;;;5004166;28;20561;-74
2023/06/02 05:30:14;;;;;;;14.87;7.53;;;14.10;75.40;;;;;;5005958;28;20290;-73
2023/06/02 05:32:39;;;;;;;19.20;7.43;;;14.00;75.80;;;;;;5003667;28;20195;-74
2023/06/02 05:35:05;;;;;;;18.13;8.53;;;14.00;75.80;;;;;;5009038;28;20987;-75
2023/06/02 05:37:31;;;;;;;16.00;8.17;;;14.10;75.80;;;;;;5005302;28;20270;-73
2023/06/02 05:39:56;;;;;;;20.87;8.90;;;14.30;75.80;;;;;;5004769;28;20468;-74
2023/06/02 05:42:22;;;;;;;15.23;7.70;;;14.20;75.70;;;;;;5011436;28;20238;-75
2023/06/02 05:44:47;;;;;;;16.53;7.90;;;14.30;75.80;;;;;;5013038;28;20190;-74
2023/06/02 05:47:13;;;;;;;14.83;7.13;;;14.30;75.80;;;;;;5006721;28;20182;-74
2023/06/02 05:49:38;;;;;;;14.40;7.53;;;14.40;75.70;;;;;;5012960;28;20686;-73
2023/06/02 05:52:04;;;;;;;14.50;8.03;;;14.50;75.20;;;;;;5014286;28;20201;-75
2023/06/02 05:54:30;;;;;;;17.73;8.77;;;14.60;74.90;;;;;;5013902;28;20254;-74
2023/06/02 05:56:56;;;;;;;14.20;7.13;;;14.50;74.90;;;;;;5013179;28;20181;-76
2023/06/02 05:59:21;;;;;;;14.33;7.80;;;14.60;74.80;;;;;;5007448;28;20267;-76
2023/06/02 06:01:47;;;;;;;14.57;8.10;;;14.60;74.80;;;;;;5013036;28;20209;-76
2023/06/02 06:04:12;;;;;;;16.03;7.57;;;14.50;74.50;;;;;;5013245;28;20182;-75
2023/06/02 06:06:38;;;;;;;17.47;7.87;;;14.50;75.40;;;;;;5011512;28;20184;-76
2023/06/02 06:09:05;;;;;;;12.47;7.13;;;14.50;75.40;;;;;;5010734;28;20209;-76
2023/06/02 06:11:31;;;;;;;19.43;8.50;;;14.70;75.10;;;;;;5008955;28;20186;-76
2023/06/02 06:13:57;;;;;;;18.13;8.90;;;15.00;74.30;;;;;;5012626;28;20450;-76
2023/06/02 06:16:22;;;;;;;23.60;9.13;;;14.80;74.00;;;;;;5008363;28;20478;-75
2023/06/02 06:18:48;;;;;;;15.77;7.77;;;14.50;75.40;;;;;;5010821;28;20191;-76
2023/06/02 06:21:13;;;;;;;16.57;6.80;;;14.60;75.40;;;;;;5012270;28;20230;-76
2023/06/02 06:23:39;;;;;;;16.40;7.83;;;14.80;74.50;;;;;;5010304;28;20182;-76
2023/06/02 06:26:05;;;;;;;14.40;8.00;;;15.00;74.30;;;;;;5015214;28;20280;-76
2023/06/02 06:28:30;;;;;;;16.27;7.60;;;14.90;74.30;;;;;;5015900;28;20217;-76
2023/06/02 06:30:56;;;;;;;16.07;8.10;;;15.00;74.60;;;;;;5012834;28;20281;-77
2023/06/02 06:33:21;;;;;;;16.50;8.23;;;14.90;74.30;;;;;;5016981;28;20190;-78
2023/06/02 06:35:47;;;;;;;16.77;8.70;;;14.90;74.20;;;;;;5016424;28;20205;-77
2023/06/02 06:38:13;;;;;;;15.87;8.10;;;14.90;74.30;;;;;;5013937;28;20187;-77
2023/06/02 06:40:38;;;;;;;14.77;8.40;;;14.90;74.80;;;;;;5009055;28;20218;-78
2023/06/02 06:43:04;;;;;;;15.20;7.53;;;15.00;74.30;;;;;;5013192;28;20207;-77
2023/06/02 06:45:30;;;;;;;17.80;8.70;;;14.90;74.60;;;;;;5016023;28;20212;-77
2023/06/02 06:47:55;;;;;;;15.90;8.73;;;15.00;74.30;;;;;;5015963;28;20239;-78
2023/06/02 06:50:21;;;;;;;17.27;7.93;;;14.90;74.50;;;;;;5011413;28;20294;-79
2023/06/02 06:52:48;;;;;;;17.53;8.63;;;14.90;74.90;;;;;;5014972;28;20219;-77
2023/06/02 06:55:14;;;;;;;15.73;7.63;;;15.10;74.20;;;;;;5014719;28;20185;-77
2023/06/02 06:57:40;;;;;;;18.90;7.80;;;15.20;73.60;;;;;;5012845;28;20818;-78
2023/06/02 07:00:06;;;;;;;18.13;8.43;;;15.20;73.50;;;;;;5012141;28;20564;-76
2023/06/02 07:02:32;;;;;;;22.87;9.60;;;15.20;73.30;;;;;;5013018;28;20229;-78
2023/06/02 07:04:58;;;;;;;15.77;8.53;;;15.20;73.60;;;;;;5011591;28;20424;-77
2023/06/02 07:07:23;;;;;;;16.40;8.23;;;15.20;73.60;;;;;;5013551;28;20432;-78
2023/06/02 07:09:49;;;;;;;12.13;7.33;;;15.40;73.30;;;;;;5005776;28;20259;-78
2023/06/02 07:12:15;;;;;;;15.70;7.10;;;15.60;72.90;;;;;;5010408;28;20264;-78
2023/06/02 07:14:40;;;;;;;18.40;9.37;;;15.70;72.30;;;;;;5011660;28;20194;-78
2023/06/02 07:17:06;;;;;;;15.33;8.50;;;15.70;72.10;;;;;;5009954;28;20189;-76
2023/06/02 07:19:32;;;;;;;15.13;7.87;;;15.60;72.90;;;;;;5010909;28;20266;-77
2023/06/02 07:21:57;;;;;;;18.00;8.47;;;15.70;72.60;;;;;;5015090;28;20554;-78
2023/06/02 07:24:23;;;;;;;18.57;8.30;;;15.90;71.70;;;;;;5016116;28;20186;-76
2023/06/02 07:26:48;;;;;;;17.03;9.20;;;15.90;71.80;;;;;;5015207;28;20178;-78
2023/06/02 07:29:14;;;;;;;16.53;8.40;;;15.80;71.70;;;;;;5011892;28;20729;-77
2023/06/02 07:31:39;;;;;;;18.73;7.93;;;15.70;72.30;;;;;;5012771;28;20220;-77
2023/06/02 07:34:05;;;;;;;11.47;7.90;;;15.80;72.00;;;;;;5016500;28;20267;-77
2023/06/02 07:36:31;;;;;;;15.97;8.03;;;16.10;71.60;;;;;;5012842;28;20235;-78
2023/06/02 07:38:56;;;;;;;17.07;7.67;;;16.10;71.40;;;;;;5013914;28;20213;-77
2023/06/02 07:41:22;;;;;;;19.40;8.43;;;16.30;71.10;;;;;;5003146;28;20195;-78
2023/06/02 07:43:47;;;;;;;17.80;7.17;;;16.50;70.40;;;;;;5015060;28;20186;-75
2023/06/02 07:46:14;;;;;;;14.50;8.33;;;16.50;70.20;;;;;;5012139;28;20178;-77
2023/06/02 07:48:40;;;;;;;16.40;7.77;;;16.60;69.90;;;;;;5009270;28;20270;-77
2023/06/02 07:51:06;;;;;;;17.50;7.37;;;16.40;70.50;;;;;;5014266;28;20456;-76
2023/06/02 07:53:32;;;;;;;16.00;7.70;;;16.40;70.20;;;;;;5008205;28;20440;-76
2023/06/02 07:55:58;;;;;;;14.90;7.77;;;16.50;70.20;;;;;;5013119;28;20447;-77
2023/06/02 07:58:23;;;;;;;16.20;8.33;;;16.30;70.10;;;;;;5012450;28;20194;-76
2023/06/02 08:00:49;;;;;;;15.97;7.83;;;16.00;71.30;;;;;;5004749;28;20211;-76
2023/06/02 08:03:15;;;;;;;16.80;9.33;;;16.20;71.30;;;;;;5013576;28;20202;-76
2023/06/02 08:05:42;;;;;;;15.53;8.00;;;16.20;70.80;;;;;;5011873;28;20549;-76
2023/06/02 08:08:09;;;;;;;13.50;7.87;;;16.00;71.40;;;;;;5011762;28;20443;-76
2023/06/02 08:10:35;;;;;;;21.33;8.10;;;16.10;71.30;;;;;;5012420;28;20459;-77
2023/06/02 08:13:00;;;;;;;15.50;8.33;;;16.30;71.00;;;;;;5009839;28;20780;-76
2023/06/02 08:15:26;;;;;;;16.17;8.97;;;16.40;69.90;;;;;;5008513;28;20213;-76
2023/06/02 08:17:51;;;;;;;14.23;8.23;;;16.30;70.40;;;;;;5008067;28;20178;-76
2023/06/02 08:20:17;;;;;;;16.43;8.27;;;16.30;70.40;;;;;;5007185;28;20221;-77
2023/06/02 08:22:44;;;;;;;17.60;8.30;;;16.50;69.90;;;;;;5009348;28;20213;-77
2023/06/02 08:25:12;;;;;;;14.17;7.17;;;16.70;69.70;;;;;;5010537;28;20182;-75
2023/06/02 08:27:38;;;;;;;11.90;6.70;;;16.90;69.10;;;;;;5010579;28;20494;-76
2023/06/02 08:30:08;;;;;;;14.87;8.17;;;16.90;68.60;;;;;;5009505;28;20508;-76
2023/06/02 08:32:33;;;;;;;14.30;7.17;;;16.90;68.60;;;;;;5008791;28;20478;-78
2023/06/02 08:35:02;;;;;;;19.33;8.37;;;16.90;69.10;;;;;;5011580;28;21055;-78
2023/06/02 08:37:29;;;;;;;14.30;7.80;;;17.20;68.50;;;;;;5008466;28;20187;-77
2023/06/02 08:39:55;;;;;;;13.23;7.80;;;17.20;68.80;;;;;;5006076;28;20482;-75
2023/06/02 08:42:22;;;;;;;12.70;7.50;;;17.20;68.80;;;;;;5010016;28;20467;-76
2023/06/02 08:44:48;;;;;;;16.33;9.00;;;17.40;68.30;;;;;;5007248;28;20500;-76
2023/06/02 08:47:14;;;;;;;17.20;7.83;;;17.20;68.50;;;;;;5005868;28;20504;-77
2023/06/02 08:49:47;;;;;;;15.93;8.67;;;17.20;68.80;;;;;;5001973;28;20672;-77
2023/06/02 08:52:25;;;;;;;15.63;7.83;;;17.40;68.60;;;;;;5006893;28;20237;-77
2023/06/02 08:54:51;;;;;;;16.83;8.20;;;17.60;68.20;;;;;;5007376;28;20474;-75
2023/06/02 08:57:20;;;;;;;14.37;8.73;;;17.50;67.50;;;;;;5011766;28;20454;-76
2023/06/02 08:59:46;;;;;;;15.90;9.00;;;17.60;67.70;;;;;;5011561;28;20476;-76
2023/06/02 09:02:13;;;;;;;19.60;9.73;;;17.80;67.70;;;;;;5008013;28;20473;-76
2023/06/02 09:04:39;;;;;;;23.63;10.00;;;17.50;68.00;;;;;;5005723;28;20449;-76
2023/06/02 09:07:15;;;;;;;17.17;8.50;;;17.40;68.60;;;;;;5003721;28;20423;-77
2023/06/02 09:09:50;;;;;;;17.03;8.87;;;17.50;68.80;;;;;;5012662;28;20226;-77
2023/06/02 09:12:17;;;;;;;15.63;8.70;;;17.60;68.00;;;;;;5005267;28;20439;-78
2023/06/02 09:14:43;;;;;;;15.20;8.43;;;17.80;67.50;;;;;;5010303;28;20505;-76
2023/06/02 09:17:29;;;;;;;13.33;8.20;;;17.70;67.30;;;;;;5010525;28;20500;-76
2023/06/02 09:19:58;;;;;;;16.87;7.67;;;17.90;66.70;;;;;;5006063;28;20216;-76
2023/06/02 09:22:24;;;;;;;16.20;8.77;;;17.90;66.70;;;;;;5010062;28;20456;-76
2023/06/02 09:24:53;;;;;;;16.30;8.80;;;18.00;66.40;;;;;;5012237;28;20508;-76
2023/06/02 09:27:18;;;;;;;16.07;8.73;;;17.70;66.90;;;;;;5013140;28;20877;-76
2023/06/02 09:29:45;;;;;;;23.30;8.63;;;17.90;67.00;;;;;;5013724;28;20492;-76
2023/06/02 09:32:14;;;;;;;14.00;8.23;;;17.80;66.30;;;;;;5011698;28;20188;-77
2023/06/02 09:34:40;;;;;;;19.73;10.37;;;17.70;67.20;;;;;;5011973;28;20995;-77
2023/06/02 09:37:11;;;;;;;14.80;7.63;;;17.90;67.50;;;;;;5012549;28;21812;-77
2023/06/02 09:39:38;;;;;;;20.70;8.80;;;18.20;66.70;;;;;;5009303;28;20552;-77
2023/06/02 09:42:06;;;;;;;16.80;8.40;;;18.50;66.00;;;;;;5015950;28;20461;-76
2023/06/02 09:44:32;;;;;;;17.40;9.20;;;18.40;66.10;;;;;;5015169;28;20452;-76
2023/06/02 09:46:59;;;;;;;12.47;7.93;;;18.50;65.40;;;;;;5011683;28;20409;-77
2023/06/02 09:49:24;;;;;;;14.00;8.23;;;18.50;65.30;;;;;;5005766;28;20554;-77
2023/06/02 09:51:50;;;;;;;15.70;9.10;;;18.60;65.10;;;;;;5009862;28;21348;-77
2023/06/02 09:54:16;;;;;;;15.50;7.90;;;18.40;65.70;;;;;;5011583;28;20194;-76
2023/06/02 09:56:42;;;;;;;16.50;9.70;;;18.10;66.30;;;;;;5015117;28;20217;-77
2023/06/02 09:59:08;;;;;;;15.37;8.70;;;18.30;65.80;;;;;;5006736;28;20292;-74
2023/06/02 10:01:35;;;;;;;14.30;8.00;;;18.30;66.60;;;;;;5008134;28;20437;-75
2023/06/02 10:04:04;;;;;;;14.23;7.93;;;18.30;66.10;;;;;;5012657;28;20431;-76
2023/06/02 10:06:38;;;;;;;12.93;7.90;;;18.70;65.80;;;;;;5013685;28;20437;-75
2023/06/02 10:09:14;;;;;;;15.70;9.13;;;18.70;65.70;;;;;;5014279;28;20547;-77
2023/06/02 10:11:53;;;;;;;13.97;7.93;;;19.10;65.40;;;;;;5015211;28;20471;-75
2023/06/02 10:17:43;;;;;;;17.33;9.00;;;18.90;65.40;;;;;;5010587;28;20469;-75
2023/06/02 10:20:23;;;;;;;15.23;8.53;;;19.20;64.70;;;;;;5005840;28;20474;-75
2023/06/02 10:23:16;;;;;;;18.47;8.97;;;18.90;65.40;;;;;;5009169;28;20484;-77
2023/06/02 10:25:59;;;;;;;13.63;8.47;;;18.80;65.60;;;;;;5005254;28;20520;-76
2023/06/02 10:28:28;;;;;;;14.57;7.53;;;19.20;64.80;;;;;;5008054;28;20429;-75
2023/06/02 10:31:07;;;;;;;16.00;7.97;;;19.60;62.60;;;;;;5014224;28;20452;-75
2023/06/02 10:33:45;;;;;;;14.67;7.50;;;19.50;63.20;;;;;;5015283;28;20497;-76
2023/06/02 10:36:17;;;;;;;14.50;7.80;;;19.80;63.20;;;;;;5012618;28;20424;-75
2023/06/02 10:38:44;;;;;;;14.47;8.50;;;19.80;62.90;;;;;;5009765;28;20456;-76
2023/06/02 10:41:10;;;;;;;16.80;8.27;;;20.00;62.90;;;;;;5007192;28;20450;-75
2023/06/02 10:43:36;;;;;;;15.07;7.63;;;20.20;61.20;;;;;;5015463;28;20496;-78
2023/06/02 10:46:21;;;;;;;14.20;8.07;;;19.80;62.50;;;;;;5013951;28;20422;-77
2023/06/02 10:48:47;;;;;;;15.23;8.00;;;19.90;61.70;;;;;;5013933;28;20258;-77
2023/06/02 10:51:13;;;;;;;11.20;7.20;;;20.00;61.70;;;;;;5014863;28;20441;-78
2023/06/02 10:54:07;;;;;;;14.23;7.43;;;20.40;61.00;;;;;;5012841;28;20449;-76
2023/06/02 10:56:43;;;;;;;12.50;7.43;;;20.20;60.90;;;;;;5017866;28;20183;-75
2023/06/02 10:59:10;;;;;;;11.17;7.27;;;20.70;60.40;;;;;;5006922;28;20435;-77
2023/06/02 11:01:46;;;;;;;13.07;7.43;;;21.00;59.70;;;;;;5018024;28;20565;-77
2023/06/02 11:04:32;;;;;;;11.57;7.00;;;21.20;58.20;;;;;;5015532;28;20432;-76
2023/06/02 11:07:12;;;;;;;12.60;7.00;;;20.70;59.70;;;;;;5015581;28;20431;-75
2023/06/02 11:09:43;;;;;;;13.20;7.70;;;20.90;59.30;;;;;;5020072;28;20431;-76
2023/06/02 11:12:09;;;;;;;13.13;7.47;;;20.70;59.90;;;;;;5017445;28;20420;-76
2023/06/02 11:15:04;;;;;;;11.57;6.83;;;20.60;59.70;;;;;;5017649;28;20427;-75
2023/06/02 11:17:36;;;;;;;10.70;6.27;;;21.10;59.30;;;;;;5008505;28;20433;-75
2023/06/02 11:20:07;;;;;;;13.90;7.33;;;21.80;57.80;;;;;;5016084;28;20827;-77
2023/06/02 11:22:33;;;;;;;13.73;7.43;;;21.70;58.10;;;;;;5017338;28;20479;-77
2023/06/02 11:25:01;;;;;;;12.47;6.83;;;22.10;56.90;;;;;;5013723;28;20509;-75
2023/06/02 11:27:44;;;;;;;10.50;6.30;;;22.40;55.70;;;;;;5018349;28;20518;-75
2023/06/02 11:30:12;;;;;;;10.53;7.40;;;22.10;55.00;;;;;;5010471;28;20468;-76
2023/06/02 11:32:38;;;;;;;11.83;7.13;;;21.30;57.20;;;;;;5017015;28;20441;-77
2023/06/02 11:35:07;;;;;;;9.47;6.53;;;20.60;59.10;;;;;;5015965;28;20424;-77
2023/06/02 11:37:38;;;;;;;11.23;7.00;;;20.80;57.80;;;;;;5015029;28;20287;-76
2023/06/02 11:40:09;;;;;;;12.97;7.03;;;21.00;58.50;;;;;;5014471;28;20498;-76
2023/06/02 11:42:36;;;;;;;10.43;6.90;;;21.70;56.60;;;;;;5015266;28;20473;-77
2023/06/02 11:45:03;;;;;;;15.10;7.47;;;21.90;55.80;;;;;;5012890;28;20430;-76
2023/06/02 11:47:28;;;;;;;16.63;8.53;;;21.90;55.60;;;;;;5015923;28;20427;-74
2023/06/02 11:49:54;;;;;;;14.13;7.17;;;21.60;56.00;;;;;;5015188;28;20471;-76
2023/06/02 11:52:20;;;;;;;9.20;6.10;;;21.80;55.80;;;;;;5016833;28;20197;-76
2023/06/02 11:54:50;;;;;;;10.70;6.03;;;21.60;55.40;;;;;;5016222;28;20201;-75
2023/06/02 11:57:36;;;;;;;10.17;5.90;;;22.10;53.30;;;;;;5016882;28;20205;-75
2023/06/02 12:00:06;;;;;;;11.73;7.23;;;22.70;53.60;;;;;;5008165;28;20459;-75
2023/06/02 12:02:32;;;;;;;15.00;7.90;;;22.80;52.20;;;;;;5009950;28;20959;-75
2023/06/02 12:04:58;;;;;;;11.20;6.63;;;22.50;53.40;;;;;;5014016;28;20421;-77
2023/06/02 12:07:27;;;;;;;11.30;6.60;;;21.90;54.10;;;;;;5013506;28;20427;-76
2023/06/02 12:09:53;;;;;;;17.53;8.57;;;21.70;54.40;;;;;;5009937;28;20217;-75
2023/06/02 12:12:18;;;;;;;11.43;6.50;;;22.20;53.20;;;;;;5013437;28;20420;-74
2023/06/02 12:14:44;;;;;;;11.23;6.07;;;22.40;53.60;;;;;;5012155;28;20192;-75
2023/06/02 12:17:09;;;;;;;11.07;6.90;;;22.50;53.60;;;;;;5011538;28;20207;-77
2023/06/02 12:19:35;;;;;;;18.13;6.73;;;21.90;53.60;;;;;;5009802;28;20289;-78
2023/06/02 12:22:14;;;;;;;12.27;6.80;;;21.90;54.20;;;;;;5009969;28;20223;-76
2023/06/02 12:24:41;;;;;;;10.67;6.87;;;22.10;54.20;;;;;;5008560;28;20194;-75
2023/06/02 12:27:08;;;;;;;11.10;7.20;;;21.80;54.20;;;;;;5011237;28;20828;-78
2023/06/02 12:29:34;;;;;;;11.60;6.13;;;21.50;55.00;;;;;;5011337;28;20508;-76
2023/06/02 12:32:01;;;;;;;10.40;6.70;;;22.00;54.90;;;;;;5010985;28;20893;-78
2023/06/02 12:34:28;;;;;;;14.30;7.03;;;22.20;52.90;;;;;;5012233;28;20428;-76
2023/06/02 12:36:54;;;;;;;10.33;6.20;;;22.20;53.00;;;;;;5011500;28;20432;-76
2023/06/02 12:39:20;;;;;;;13.90;6.10;;;22.80;51.80;;;;;;5009878;28;20474;-76
2023/06/02 12:41:45;;;;;;;14.13;6.53;;;23.00;50.50;;;;;;5011115;28;20208;-76